Trisler, Kentucky
Current Conditions -  °F | °C
As of 2:56 PM on Thursday 23 Oct 2014 (Local Time) from KOWB Reporting Station
Clear Clear  
Wind Chill: 62°   Ceiling: Unl
Heat Index: 62°   Visibility: 10mi
Dew Point: 43°   Wind: 5mph
Humidity: 50%   Direction: 310°NW
Pressure: 30.15"   Gusts: NA
Location:  37.6216°N, 86.7165°W
Report Text: KOWB 231956Z AUTO 31004KT 10SM CLR 17/06 A3015 RMK AO2 TSNO T01660061 SLP209
Loading
Personal Weather Stations






























Interactive Weather Map
Tropical Storm Tracking
New forecast layout! Learn more

10-Day Weather Forecast

Advertisements
Track Severe Weather on mobile